LFLW 221500Z AUTO 33005KT 280V010 9999 ////// 14/M00 Q1032

ElémentsDécodage
LFLW Station météo située sur l'aérodrome de AURILLAC
221500Z émis le 22 du mois à 15h00 UTC
AUTO Bulletin édité par un automate
33005KT vent du 330°, 05 noeuds
280V010 vent de direction variable entre 280° et 010°
9999 visibilité horizontale supérieure à 10 Km
////// nébulosité (type et hauteur) non disponible
 type de nuage non observable
14/M00 température 14°C, point de rosée 00°C
 soit une humidité relative de 38%
Q1032 la pression au niveau de la mer (QNH) est de 1032 hPa